sensor_id;sensor_type;location;lat;lon;timestamp;temperature;humidity
28835;DHT22;15969;51.536;11.884;2022-12-11T00:01:59;0.90;99.90
28835;DHT22;15969;51.536;11.884;2022-12-11T00:04:24;0.90;99.90
28835;DHT22;15969;51.536;11.884;2022-12-11T00:06:51;0.90;99.90
28835;DHT22;15969;51.536;11.884;2022-12-11T00:09:17;0.90;99.90
28835;DHT22;15969;51.536;11.884;2022-12-11T00:11:44;0.90;99.90
28835;DHT22;15969;51.536;11.884;2022-12-11T00:14:10;0.90;99.90
28835;DHT22;15969;51.536;11.884;2022-12-11T00:16:36;0.90;99.90
28835;DHT22;15969;51.536;11.884;2022-12-11T00:19:01;1.00;99.90
28835;DHT22;15969;51.536;11.884;2022-12-11T00:21:27;0.90;99.90
28835;DHT22;15969;51.536;11.884;2022-12-11T00:23:53;1.00;99.90
28835;DHT22;15969;51.536;11.884;2022-12-11T00:26:19;1.00;99.90
28835;DHT22;15969;51.536;11.884;2022-12-11T00:28:45;1.00;99.90
28835;DHT22;15969;51.536;11.884;2022-12-11T00:31:16;0.90;99.90
28835;DHT22;15969;51.536;11.884;2022-12-11T00:33:43;0.90;99.90
28835;DHT22;15969;51.536;11.884;2022-12-11T00:36:14;0.80;99.90
28835;DHT22;15969;51.536;11.884;2022-12-11T00:38:45;0.80;99.90
28835;DHT22;15969;51.536;11.884;2022-12-11T00:41:11;0.90;99.90
28835;DHT22;15969;51.536;11.884;2022-12-11T00:43:37;0.80;99.90
28835;DHT22;15969;51.536;11.884;2022-12-11T00:46:03;0.80;99.90
28835;DHT22;15969;51.536;11.884;2022-12-11T00:48:29;0.80;99.90
28835;DHT22;15969;51.536;11.884;2022-12-11T00:50:54;0.80;99.90
28835;DHT22;15969;51.536;11.884;2022-12-11T00:53:20;0.80;99.90
28835;DHT22;15969;51.536;11.884;2022-12-11T00:55:46;0.80;99.90
28835;DHT22;15969;51.536;11.884;2022-12-11T00:58:12;0.80;99.90
28835;DHT22;15969;51.536;11.884;2022-12-11T01:00:39;0.90;99.90
28835;DHT22;15969;51.536;11.884;2022-12-11T01:03:05;0.80;99.90
28835;DHT22;15969;51.536;11.884;2022-12-11T01:05:31;0.80;99.90
28835;DHT22;15969;51.536;11.884;2022-12-11T01:07:58;0.80;99.90
28835;DHT22;15969;51.536;11.884;2022-12-11T01:10:24;0.60;99.90
28835;DHT22;15969;51.536;11.884;2022-12-11T01:15:22;0.60;99.90
28835;DHT22;15969;51.536;11.884;2022-12-11T01:17:50;0.60;99.90
28835;DHT22;15969;51.536;11.884;2022-12-11T01:20:16;0.70;99.90
28835;DHT22;15969;51.536;11.884;2022-12-11T01:22:42;0.70;99.90
28835;DHT22;15969;51.536;11.884;2022-12-11T01:25:08;0.70;99.90
28835;DHT22;15969;51.536;11.884;2022-12-11T01:27:35;0.70;99.90
28835;DHT22;15969;51.536;11.884;2022-12-11T01:30:06;0.70;99.90
28835;DHT22;15969;51.536;11.884;2022-12-11T01:32:33;0.80;99.90
28835;DHT22;15969;51.536;11.884;2022-12-11T01:35:05;0.80;99.90
28835;DHT22;15969;51.536;11.884;2022-12-11T01:37:32;0.80;99.90
28835;DHT22;15969;51.536;11.884;2022-12-11T01:40:00;0.70;99.90
28835;DHT22;15969;51.536;11.884;2022-12-11T01:42:26;0.70;99.90
28835;DHT22;15969;51.536;11.884;2022-12-11T01:45:33;0.80;99.90
28835;DHT22;15969;51.536;11.884;2022-12-11T01:50:46;0.70;99.90
28835;DHT22;15969;51.536;11.884;2022-12-11T01:53:19;0.80;99.90
28835;DHT22;15969;51.536;11.884;2022-12-11T01:55:48;0.80;99.90
28835;DHT22;15969;51.536;11.884;2022-12-11T01:58:17;0.70;99.90
28835;DHT22;15969;51.536;11.884;2022-12-11T02:00:45;0.70;99.90
28835;DHT22;15969;51.536;11.884;2022-12-11T02:03:11;0.70;99.90
28835;DHT22;15969;51.536;11.884;2022-12-11T02:05:37;0.60;99.90
28835;DHT22;15969;51.536;11.884;2022-12-11T02:08:03;0.60;99.90
28835;DHT22;15969;51.536;11.884;2022-12-11T02:16:20;0.60;99.90
28835;DHT22;15969;51.536;11.884;2022-12-11T02:18:59;0.60;99.90
28835;DHT22;15969;51.536;11.884;2022-12-11T02:21:40;0.60;99.90
28835;DHT22;15969;51.536;11.884;2022-12-11T02:27:34;0.70;99.90
28835;DHT22;15969;51.536;11.884;2022-12-11T02:30:10;0.70;99.90
28835;DHT22;15969;51.536;11.884;2022-12-11T02:32:52;0.80;99.90
28835;DHT22;15969;51.536;11.884;2022-12-11T02:35:38;0.70;99.90
28835;DHT22;15969;51.536;11.884;2022-12-11T02:38:15;0.70;99.90
28835;DHT22;15969;51.536;11.884;2022-12-11T02:40:48;0.70;99.90
28835;DHT22;15969;51.536;11.884;2022-12-11T02:43:18;0.70;99.90
28835;DHT22;15969;51.536;11.884;2022-12-11T02:45:45;0.70;99.90
28835;DHT22;15969;51.536;11.884;2022-12-11T02:48:12;0.60;99.90
28835;DHT22;15969;51.536;11.884;2022-12-11T02:50:44;0.60;99.90
28835;DHT22;15969;51.536;11.884;2022-12-11T02:53:17;0.70;99.90
28835;DHT22;15969;51.536;11.884;2022-12-11T02:55:47;0.60;99.90
28835;DHT22;15969;51.536;11.884;2022-12-11T02:58:23;0.50;99.90
28835;DHT22;15969;51.536;11.884;2022-12-11T03:00:51;0.50;99.90
28835;DHT22;15969;51.536;11.884;2022-12-11T03:03:17;0.50;99.90
28835;DHT22;15969;51.536;11.884;2022-12-11T03:05:43;0.50;99.90
28835;DHT22;15969;51.536;11.884;2022-12-11T03:08:10;0.50;99.90
28835;DHT22;15969;51.536;11.884;2022-12-11T03:10:36;0.50;99.90
28835;DHT22;15969;51.536;11.884;2022-12-11T03:13:03;0.50;99.90
28835;DHT22;15969;51.536;11.884;2022-12-11T03:15:39;0.60;99.90
28835;DHT22;15969;51.536;11.884;2022-12-11T03:18:17;0.50;99.90
28835;DHT22;15969;51.536;11.884;2022-12-11T03:21:01;-0.10;99.90
28835;DHT22;15969;51.536;11.884;2022-12-11T03:23:46;-0.10;99.90
28835;DHT22;15969;51.536;11.884;2022-12-11T03:26:16;-0.30;99.90
28835;DHT22;15969;51.536;11.884;2022-12-11T03:28:54;-0.30;99.90
28835;DHT22;15969;51.536;11.884;2022-12-11T03:31:38;-0.30;99.90
28835;DHT22;15969;51.536;11.884;2022-12-11T03:34:36;-0.30;99.90
28835;DHT22;15969;51.536;11.884;2022-12-11T03:37:06;-0.30;99.90
28835;DHT22;15969;51.536;11.884;2022-12-11T03:39:37;-0.40;99.90
28835;DHT22;15969;51.536;11.884;2022-12-11T03:42:06;-0.20;99.90
28835;DHT22;15969;51.536;11.884;2022-12-11T03:44:35;-0.30;99.90
28835;DHT22;15969;51.536;11.884;2022-12-11T03:47:03;-0.50;99.90
28835;DHT22;15969;51.536;11.884;2022-12-11T03:49:36;-0.50;99.90
28835;DHT22;15969;51.536;11.884;2022-12-11T03:52:04;-0.50;99.90
28835;DHT22;15969;51.536;11.884;2022-12-11T03:54:30;-0.40;99.90
28835;DHT22;15969;51.536;11.884;2022-12-11T03:57:00;-0.40;99.90
28835;DHT22;15969;51.536;11.884;2022-12-11T03:59:27;-0.40;99.90
28835;DHT22;15969;51.536;11.884;2022-12-11T04:01:53;-0.50;99.90
28835;DHT22;15969;51.536;11.884;2022-12-11T04:04:19;-0.50;99.90
28835;DHT22;15969;51.536;11.884;2022-12-11T04:06:45;-0.60;99.90
28835;DHT22;15969;51.536;11.884;2022-12-11T04:09:11;-0.70;99.90
28835;DHT22;15969;51.536;11.884;2022-12-11T04:11:36;-0.70;99.90
28835;DHT22;15969;51.536;11.884;2022-12-11T04:14:06;-0.80;99.90
28835;DHT22;15969;51.536;11.884;2022-12-11T04:16:55;-0.80;99.90
28835;DHT22;15969;51.536;11.884;2022-12-11T04:19:22;-0.80;99.90
28835;DHT22;15969;51.536;11.884;2022-12-11T04:22:08;-0.70;99.90
28835;DHT22;15969;51.536;11.884;2022-12-11T04:25:02;-0.70;99.90
28835;DHT22;15969;51.536;11.884;2022-12-11T04:27:29;-0.80;99.90
28835;DHT22;15969;51.536;11.884;2022-12-11T04:30:22;-0.70;99.90
28835;DHT22;15969;51.536;11.884;2022-12-11T04:32:49;-0.50;99.90
28835;DHT22;15969;51.536;11.884;2022-12-11T04:35:15;-0.40;99.90
28835;DHT22;15969;51.536;11.884;2022-12-11T04:37:42;-0.30;99.90
28835;DHT22;15969;51.536;11.884;2022-12-11T04:40:10;-0.40;99.90
28835;DHT22;15969;51.536;11.884;2022-12-11T04:42:38;-0.60;99.90
28835;DHT22;15969;51.536;11.884;2022-12-11T04:45:04;-0.70;99.90
28835;DHT22;15969;51.536;11.884;2022-12-11T04:47:31;-0.70;99.90
28835;DHT22;15969;51.536;11.884;2022-12-11T04:49:56;-0.70;99.90
28835;DHT22;15969;51.536;11.884;2022-12-11T04:52:22;-0.80;99.90
28835;DHT22;15969;51.536;11.884;2022-12-11T04:54:48;-0.80;99.90
28835;DHT22;15969;51.536;11.884;2022-12-11T04:57:13;-0.90;99.90
28835;DHT22;15969;51.536;11.884;2022-12-11T04:59:39;-0.80;99.90
28835;DHT22;15969;51.536;11.884;2022-12-11T05:02:05;-0.90;99.90
28835;DHT22;15969;51.536;11.884;2022-12-11T05:04:32;-0.90;99.90
28835;DHT22;15969;51.536;11.884;2022-12-11T05:06:59;-1.00;99.90
28835;DHT22;15969;51.536;11.884;2022-12-11T05:09:25;-1.00;99.90
28835;DHT22;15969;51.536;11.884;2022-12-11T05:11:51;-1.10;99.90
28835;DHT22;15969;51.536;11.884;2022-12-11T05:14:18;-1.10;99.90
28835;DHT22;15969;51.536;11.884;2022-12-11T05:16:44;-1.00;99.90
28835;DHT22;15969;51.536;11.884;2022-12-11T05:19:09;-1.10;99.90
28835;DHT22;15969;51.536;11.884;2022-12-11T05:21:35;-1.10;99.90
28835;DHT22;15969;51.536;11.884;2022-12-11T05:24:01;-1.10;99.90
28835;DHT22;15969;51.536;11.884;2022-12-11T05:26:28;-1.10;99.90
28835;DHT22;15969;51.536;11.884;2022-12-11T05:28:54;-1.00;99.90
28835;DHT22;15969;51.536;11.884;2022-12-11T05:31:23;-1.00;99.90
28835;DHT22;15969;51.536;11.884;2022-12-11T05:33:51;-1.10;99.90
28835;DHT22;15969;51.536;11.884;2022-12-11T05:36:22;-1.00;99.90
28835;DHT22;15969;51.536;11.884;2022-12-11T05:38:50;-1.10;99.90
28835;DHT22;15969;51.536;11.884;2022-12-11T05:41:20;-1.00;99.90
28835;DHT22;15969;51.536;11.884;2022-12-11T05:43:47;-1.00;99.90
28835;DHT22;15969;51.536;11.884;2022-12-11T05:46:19;-1.00;99.90
28835;DHT22;15969;51.536;11.884;2022-12-11T05:48:48;-1.00;99.90
28835;DHT22;15969;51.536;11.884;2022-12-11T05:51:16;-1.00;99.90
28835;DHT22;15969;51.536;11.884;2022-12-11T05:53:43;-1.10;99.90
28835;DHT22;15969;51.536;11.884;2022-12-11T05:56:13;-1.00;99.90
28835;DHT22;15969;51.536;11.884;2022-12-11T05:58:50;-1.00;99.90
28835;DHT22;15969;51.536;11.884;2022-12-11T06:01:28;-1.00;99.90
28835;DHT22;15969;51.536;11.884;2022-12-11T06:03:56;-1.00;99.90
28835;DHT22;15969;51.536;11.884;2022-12-11T06:06:23;-1.10;99.90
28835;DHT22;15969;51.536;11.884;2022-12-11T06:08:51;-1.20;99.90
28835;DHT22;15969;51.536;11.884;2022-12-11T06:11:18;-1.20;99.90
28835;DHT22;15969;51.536;11.884;2022-12-11T06:13:44;-1.20;99.90
28835;DHT22;15969;51.536;11.884;2022-12-11T06:16:10;-1.20;99.90
28835;DHT22;15969;51.536;11.884;2022-12-11T06:18:37;-1.20;99.90
28835;DHT22;15969;51.536;11.884;2022-12-11T06:21:14;-1.30;99.90
28835;DHT22;15969;51.536;11.884;2022-12-11T06:23:42;-1.30;99.90
28835;DHT22;15969;51.536;11.884;2022-12-11T06:26:10;-1.30;99.90
28835;DHT22;15969;51.536;11.884;2022-12-11T06:28:36;-1.30;99.90
28835;DHT22;15969;51.536;11.884;2022-12-11T06:31:02;-1.30;99.90
28835;DHT22;15969;51.536;11.884;2022-12-11T06:33:28;-1.30;99.90
28835;DHT22;15969;51.536;11.884;2022-12-11T06:35:55;-1.30;99.90
28835;DHT22;15969;51.536;11.884;2022-12-11T06:38:21;-1.20;99.90
28835;DHT22;15969;51.536;11.884;2022-12-11T06:40:57;-1.30;99.90
28835;DHT22;15969;51.536;11.884;2022-12-11T06:43:24;-1.30;99.90
28835;DHT22;15969;51.536;11.884;2022-12-11T06:45:50;-1.30;99.90
28835;DHT22;15969;51.536;11.884;2022-12-11T06:48:17;-1.30;99.90
28835;DHT22;15969;51.536;11.884;2022-12-11T06:50:43;-1.30;99.90
28835;DHT22;15969;51.536;11.884;2022-12-11T06:53:11;-1.30;99.90
28835;DHT22;15969;51.536;11.884;2022-12-11T06:55:38;-1.20;99.90
28835;DHT22;15969;51.536;11.884;2022-12-11T06:58:03;-1.20;99.90
28835;DHT22;15969;51.536;11.884;2022-12-11T07:00:30;-1.00;99.90
28835;DHT22;15969;51.536;11.884;2022-12-11T07:02:55;-0.90;99.90
28835;DHT22;15969;51.536;11.884;2022-12-11T07:05:21;-0.80;99.90
28835;DHT22;15969;51.536;11.884;2022-12-11T07:07:47;-0.80;99.90
28835;DHT22;15969;51.536;11.884;2022-12-11T07:10:12;-0.70;99.90
28835;DHT22;15969;51.536;11.884;2022-12-11T07:12:38;-0.60;99.90
28835;DHT22;15969;51.536;11.884;2022-12-11T07:15:04;-0.80;99.90
28835;DHT22;15969;51.536;11.884;2022-12-11T07:17:30;-0.80;99.90
28835;DHT22;15969;51.536;11.884;2022-12-11T07:19:56;-0.80;99.90
28835;DHT22;15969;51.536;11.884;2022-12-11T07:22:22;-0.70;99.90
28835;DHT22;15969;51.536;11.884;2022-12-11T07:24:48;-0.60;99.90
28835;DHT22;15969;51.536;11.884;2022-12-11T07:27:13;-0.60;99.90
28835;DHT22;15969;51.536;11.884;2022-12-11T07:29:39;-0.50;99.90
28835;DHT22;15969;51.536;11.884;2022-12-11T07:32:05;-0.60;99.90
28835;DHT22;15969;51.536;11.884;2022-12-11T07:34:31;-0.50;99.90
28835;DHT22;15969;51.536;11.884;2022-12-11T07:36:57;-0.50;99.90
28835;DHT22;15969;51.536;11.884;2022-12-11T07:39:22;-0.50;99.90
28835;DHT22;15969;51.536;11.884;2022-12-11T07:41:48;-0.50;99.90
28835;DHT22;15969;51.536;11.884;2022-12-11T07:44:14;-0.50;99.90
28835;DHT22;15969;51.536;11.884;2022-12-11T07:46:40;-0.50;99.90
28835;DHT22;15969;51.536;11.884;2022-12-11T07:49:06;-0.60;99.90
28835;DHT22;15969;51.536;11.884;2022-12-11T07:51:33;-0.60;99.90
28835;DHT22;15969;51.536;11.884;2022-12-11T07:54:03;-0.50;99.90
28835;DHT22;15969;51.536;11.884;2022-12-11T07:56:30;-0.50;99.90
28835;DHT22;15969;51.536;11.884;2022-12-11T07:59:04;-0.50;99.90
28835;DHT22;15969;51.536;11.884;2022-12-11T08:01:33;-0.50;99.90
28835;DHT22;15969;51.536;11.884;2022-12-11T08:04:04;-0.40;99.90
28835;DHT22;15969;51.536;11.884;2022-12-11T08:06:33;-0.50;99.90
28835;DHT22;15969;51.536;11.884;2022-12-11T08:09:03;-0.40;99.90
28835;DHT22;15969;51.536;11.884;2022-12-11T08:11:31;-0.40;99.90
28835;DHT22;15969;51.536;11.884;2022-12-11T08:13:57;-0.40;99.90
28835;DHT22;15969;51.536;11.884;2022-12-11T08:16:24;-0.40;99.90
28835;DHT22;15969;51.536;11.884;2022-12-11T08:18:51;-0.30;99.90
28835;DHT22;15969;51.536;11.884;2022-12-11T08:21:22;-0.30;99.90
28835;DHT22;15969;51.536;11.884;2022-12-11T08:23:51;-0.30;99.90
28835;DHT22;15969;51.536;11.884;2022-12-11T08:26:20;-0.20;99.90
28835;DHT22;15969;51.536;11.884;2022-12-11T08:28:49;-0.20;99.90
28835;DHT22;15969;51.536;11.884;2022-12-11T08:31:16;-0.10;99.90
28835;DHT22;15969;51.536;11.884;2022-12-11T08:33:43;-0.10;99.90
28835;DHT22;15969;51.536;11.884;2022-12-11T08:36:11;-0.20;99.90
28835;DHT22;15969;51.536;11.884;2022-12-11T08:38:38;0.00;99.90
28835;DHT22;15969;51.536;11.884;2022-12-11T08:41:12;0.00;99.90
28835;DHT22;15969;51.536;11.884;2022-12-11T08:43:43;0.10;99.90
28835;DHT22;15969;51.536;11.884;2022-12-11T08:46:10;0.00;99.90
28835;DHT22;15969;51.536;11.884;2022-12-11T08:48:37;0.10;99.90
28835;DHT22;15969;51.536;11.884;2022-12-11T08:51:07;0.10;99.90
28835;DHT22;15969;51.536;11.884;2022-12-11T08:53:35;0.10;99.90
28835;DHT22;15969;51.536;11.884;2022-12-11T08:56:02;0.20;99.90
28835;DHT22;15969;51.536;11.884;2022-12-11T08:58:31;0.20;99.90
28835;DHT22;15969;51.536;11.884;2022-12-11T09:00:57;0.20;99.90
28835;DHT22;15969;51.536;11.884;2022-12-11T09:03:23;0.20;99.90
28835;DHT22;15969;51.536;11.884;2022-12-11T09:05:50;0.30;99.90
28835;DHT22;15969;51.536;11.884;2022-12-11T09:08:16;0.30;99.90
28835;DHT22;15969;51.536;11.884;2022-12-11T09:10:42;0.30;99.90
28835;DHT22;15969;51.536;11.884;2022-12-11T09:13:07;0.40;99.90
28835;DHT22;15969;51.536;11.884;2022-12-11T09:15:33;0.40;99.90
28835;DHT22;15969;51.536;11.884;2022-12-11T09:18:00;0.30;99.90
28835;DHT22;15969;51.536;11.884;2022-12-11T09:20:25;0.40;99.90
28835;DHT22;15969;51.536;11.884;2022-12-11T09:22:51;0.40;99.90
28835;DHT22;15969;51.536;11.884;2022-12-11T09:25:17;0.40;99.90
28835;DHT22;15969;51.536;11.884;2022-12-11T09:27:43;0.40;99.90
28835;DHT22;15969;51.536;11.884;2022-12-11T09:30:08;0.50;99.90
28835;DHT22;15969;51.536;11.884;2022-12-11T09:32:34;0.50;99.90
28835;DHT22;15969;51.536;11.884;2022-12-11T09:35:00;0.60;99.90
28835;DHT22;15969;51.536;11.884;2022-12-11T09:37:25;0.60;99.90
28835;DHT22;15969;51.536;11.884;2022-12-11T09:39:51;0.60;99.90
28835;DHT22;15969;51.536;11.884;2022-12-11T09:42:37;0.70;99.90
28835;DHT22;15969;51.536;11.884;2022-12-11T09:45:13;0.70;99.90
28835;DHT22;15969;51.536;11.884;2022-12-11T09:47:44;0.80;99.90
28835;DHT22;15969;51.536;11.884;2022-12-11T09:58:30;0.80;99.90
28835;DHT22;15969;51.536;11.884;2022-12-11T10:01:07;0.90;99.90
28835;DHT22;15969;51.536;11.884;2022-12-11T10:04:04;0.90;99.90
28835;DHT22;15969;51.536;11.884;2022-12-11T10:06:56;0.90;99.90
28835;DHT22;15969;51.536;11.884;2022-12-11T10:18:18;0.80;99.90
28835;DHT22;15969;51.536;11.884;2022-12-11T10:20:51;0.80;99.90
28835;DHT22;15969;51.536;11.884;2022-12-11T10:23:23;0.80;99.90
28835;DHT22;15969;51.536;11.884;2022-12-11T10:25:57;0.80;99.90
28835;DHT22;15969;51.536;11.884;2022-12-11T10:28:28;0.80;99.90
28835;DHT22;15969;51.536;11.884;2022-12-11T10:31:10;0.90;99.90
28835;DHT22;15969;51.536;11.884;2022-12-11T10:36:53;0.90;99.90
28835;DHT22;15969;51.536;11.884;2022-12-11T10:39:21;0.80;99.90
28835;DHT22;15969;51.536;11.884;2022-12-11T10:41:49;0.80;99.90
28835;DHT22;15969;51.536;11.884;2022-12-11T10:44:30;0.80;99.90
28835;DHT22;15969;51.536;11.884;2022-12-11T10:47:11;0.80;99.90
28835;DHT22;15969;51.536;11.884;2022-12-11T10:49:42;0.90;99.90
28835;DHT22;15969;51.536;11.884;2022-12-11T10:52:22;0.90;99.90
28835;DHT22;15969;51.536;11.884;2022-12-11T10:54:59;0.90;99.90
28835;DHT22;15969;51.536;11.884;2022-12-11T10:57:33;1.00;99.90
28835;DHT22;15969;51.536;11.884;2022-12-11T11:00:01;1.00;99.90
28835;DHT22;15969;51.536;11.884;2022-12-11T11:02:34;1.10;99.90
28835;DHT22;15969;51.536;11.884;2022-12-11T11:05:14;1.10;99.90
28835;DHT22;15969;51.536;11.884;2022-12-11T11:07:41;1.10;99.90
28835;DHT22;15969;51.536;11.884;2022-12-11T11:12:40;1.20;99.90
28835;DHT22;15969;51.536;11.884;2022-12-11T11:15:19;1.20;99.90
28835;DHT22;15969;51.536;11.884;2022-12-11T11:17:51;1.20;99.90
28835;DHT22;15969;51.536;11.884;2022-12-11T11:20:21;1.20;99.90
28835;DHT22;15969;51.536;11.884;2022-12-11T11:22:51;1.20;99.90
28835;DHT22;15969;51.536;11.884;2022-12-11T11:25:24;1.20;99.90
28835;DHT22;15969;51.536;11.884;2022-12-11T11:30:30;1.20;99.90
28835;DHT22;15969;51.536;11.884;2022-12-11T11:33:03;1.30;99.90
28835;DHT22;15969;51.536;11.884;2022-12-11T11:35:31;1.30;99.90
28835;DHT22;15969;51.536;11.884;2022-12-11T11:38:15;1.40;99.90
28835;DHT22;15969;51.536;11.884;2022-12-11T11:40:53;1.40;99.90
28835;DHT22;15969;51.536;11.884;2022-12-11T11:51:59;1.30;99.90
28835;DHT22;15969;51.536;11.884;2022-12-11T11:57:41;1.40;99.90
28835;DHT22;15969;51.536;11.884;2022-12-11T12:00:22;1.40;99.90
28835;DHT22;15969;51.536;11.884;2022-12-11T12:02:55;1.40;99.90
28835;DHT22;15969;51.536;11.884;2022-12-11T12:06:10;1.50;99.90
28835;DHT22;15969;51.536;11.884;2022-12-11T12:14:57;1.50;99.90
28835;DHT22;15969;51.536;11.884;2022-12-11T12:31:36;1.70;99.90
28835;DHT22;15969;51.536;11.884;2022-12-11T12:47:43;1.70;99.90
28835;DHT22;15969;51.536;11.884;2022-12-11T12:50:16;1.70;99.90
28835;DHT22;15969;51.536;11.884;2022-12-11T12:52:44;1.60;99.90
28835;DHT22;15969;51.536;11.884;2022-12-11T12:57:51;1.50;99.90
28835;DHT22;15969;51.536;11.884;2022-12-11T13:00:26;1.40;99.90
28835;DHT22;15969;51.536;11.884;2022-12-11T13:02:55;1.30;99.90
28835;DHT22;15969;51.536;11.884;2022-12-11T13:05:24;1.30;99.90
28835;DHT22;15969;51.536;11.884;2022-12-11T13:07:57;1.30;99.90
28835;DHT22;15969;51.536;11.884;2022-12-11T13:10:30;1.30;99.90
28835;DHT22;15969;51.536;11.884;2022-12-11T13:12:57;1.20;99.90
28835;DHT22;15969;51.536;11.884;2022-12-11T13:18:35;1.30;99.90
28835;DHT22;15969;51.536;11.884;2022-12-11T13:21:23;1.30;99.90
28835;DHT22;15969;51.536;11.884;2022-12-11T13:23:49;1.30;99.90
28835;DHT22;15969;51.536;11.884;2022-12-11T13:26:27;1.40;99.90
28835;DHT22;15969;51.536;11.884;2022-12-11T13:28:54;1.40;99.90
28835;DHT22;15969;51.536;11.884;2022-12-11T13:31:37;1.40;99.90
28835;DHT22;15969;51.536;11.884;2022-12-11T13:34:17;1.40;99.90
28835;DHT22;15969;51.536;11.884;2022-12-11T13:36:48;1.40;99.90
28835;DHT22;15969;51.536;11.884;2022-12-11T13:39:26;1.40;99.90
28835;DHT22;15969;51.536;11.884;2022-12-11T13:41:58;1.40;99.90
28835;DHT22;15969;51.536;11.884;2022-12-11T13:44:38;1.30;99.90
28835;DHT22;15969;51.536;11.884;2022-12-11T13:47:09;1.20;99.90
28835;DHT22;15969;51.536;11.884;2022-12-11T13:49:39;1.20;99.90
28835;DHT22;15969;51.536;11.884;2022-12-11T13:52:17;1.20;99.90
28835;DHT22;15969;51.536;11.884;2022-12-11T13:54:51;1.10;99.90
28835;DHT22;15969;51.536;11.884;2022-12-11T13:57:20;1.10;99.90
28835;DHT22;15969;51.536;11.884;2022-12-11T13:59:52;1.00;99.90
28835;DHT22;15969;51.536;11.884;2022-12-11T14:02:37;0.90;99.90
28835;DHT22;15969;51.536;11.884;2022-12-11T14:05:11;0.90;99.90
28835;DHT22;15969;51.536;11.884;2022-12-11T14:07:45;0.90;99.90
28835;DHT22;15969;51.536;11.884;2022-12-11T14:15:24;0.80;99.90
28835;DHT22;15969;51.536;11.884;2022-12-11T14:17:51;0.70;99.90
28835;DHT22;15969;51.536;11.884;2022-12-11T14:20:43;0.70;99.90
28835;DHT22;15969;51.536;11.884;2022-12-11T14:23:18;0.70;99.90
28835;DHT22;15969;51.536;11.884;2022-12-11T14:26:03;0.70;99.90
28835;DHT22;15969;51.536;11.884;2022-12-11T14:28:41;0.70;99.90
28835;DHT22;15969;51.536;11.884;2022-12-11T14:31:08;0.60;99.90
28835;DHT22;15969;51.536;11.884;2022-12-11T14:33:43;0.60;99.90
28835;DHT22;15969;51.536;11.884;2022-12-11T14:36:10;0.50;99.90
28835;DHT22;15969;51.536;11.884;2022-12-11T14:38:42;0.50;99.90
28835;DHT22;15969;51.536;11.884;2022-12-11T14:41:20;0.50;99.90
28835;DHT22;15969;51.536;11.884;2022-12-11T14:44:13;0.50;99.90
28835;DHT22;15969;51.536;11.884;2022-12-11T14:46:53;0.50;99.90
28835;DHT22;15969;51.536;11.884;2022-12-11T14:52:10;0.50;99.90
28835;DHT22;15969;51.536;11.884;2022-12-11T14:54:46;0.40;99.90
28835;DHT22;15969;51.536;11.884;2022-12-11T14:57:22;0.40;99.90
28835;DHT22;15969;51.536;11.884;2022-12-11T14:59:52;0.40;99.90
28835;DHT22;15969;51.536;11.884;2022-12-11T15:02:25;0.40;99.90
28835;DHT22;15969;51.536;11.884;2022-12-11T15:07:36;0.30;99.90
28835;DHT22;15969;51.536;11.884;2022-12-11T15:10:03;0.30;99.90
28835;DHT22;15969;51.536;11.884;2022-12-11T15:12:29;0.30;99.90
28835;DHT22;15969;51.536;11.884;2022-12-11T15:15:01;0.30;99.90
28835;DHT22;15969;51.536;11.884;2022-12-11T15:17:29;0.30;99.90
28835;DHT22;15969;51.536;11.884;2022-12-11T15:20:05;0.20;99.90
28835;DHT22;15969;51.536;11.884;2022-12-11T15:22:32;0.30;99.90
28835;DHT22;15969;51.536;11.884;2022-12-11T15:25:00;0.20;99.90
28835;DHT22;15969;51.536;11.884;2022-12-11T15:27:36;0.20;99.90
28835;DHT22;15969;51.536;11.884;2022-12-11T15:32:44;0.20;99.90
28835;DHT22;15969;51.536;11.884;2022-12-11T15:35:24;0.20;99.90
28835;DHT22;15969;51.536;11.884;2022-12-11T15:37:53;0.20;99.90
28835;DHT22;15969;51.536;11.884;2022-12-11T15:40:20;0.20;99.90
28835;DHT22;15969;51.536;11.884;2022-12-11T15:42:46;0.10;99.90
28835;DHT22;15969;51.536;11.884;2022-12-11T15:45:24;0.10;99.90
28835;DHT22;15969;51.536;11.884;2022-12-11T15:47:53;0.20;99.90
28835;DHT22;15969;51.536;11.884;2022-12-11T15:50:22;0.10;99.90
28835;DHT22;15969;51.536;11.884;2022-12-11T15:52:50;0.10;99.90
28835;DHT22;15969;51.536;11.884;2022-12-11T15:55:17;0.00;99.90
28835;DHT22;15969;51.536;11.884;2022-12-11T15:57:46;0.10;99.90
28835;DHT22;15969;51.536;11.884;2022-12-11T16:00:16;0.10;99.90
28835;DHT22;15969;51.536;11.884;2022-12-11T16:02:44;0.20;99.90
28835;DHT22;15969;51.536;11.884;2022-12-11T16:05:10;0.10;99.90
28835;DHT22;15969;51.536;11.884;2022-12-11T16:07:36;0.10;99.90
28835;DHT22;15969;51.536;11.884;2022-12-11T16:10:02;0.20;99.90
28835;DHT22;15969;51.536;11.884;2022-12-11T16:12:28;0.10;99.90
28835;DHT22;15969;51.536;11.884;2022-12-11T16:14:54;0.10;99.90
28835;DHT22;15969;51.536;11.884;2022-12-11T16:17:20;0.10;99.90
28835;DHT22;15969;51.536;11.884;2022-12-11T16:19:45;0.10;99.90
28835;DHT22;15969;51.536;11.884;2022-12-11T16:22:12;0.20;99.90
28835;DHT22;15969;51.536;11.884;2022-12-11T16:24:38;0.10;99.90
28835;DHT22;15969;51.536;11.884;2022-12-11T16:27:06;0.10;99.90
28835;DHT22;15969;51.536;11.884;2022-12-11T16:29:39;0.10;99.90
28835;DHT22;15969;51.536;11.884;2022-12-11T16:32:06;0.20;99.90
28835;DHT22;15969;51.536;11.884;2022-12-11T16:34:33;0.20;99.90
28835;DHT22;15969;51.536;11.884;2022-12-11T16:37:00;0.10;99.90
28835;DHT22;15969;51.536;11.884;2022-12-11T16:39:27;0.10;99.90
28835;DHT22;15969;51.536;11.884;2022-12-11T16:41:52;0.10;99.90
28835;DHT22;15969;51.536;11.884;2022-12-11T16:44:20;0.20;99.90
28835;DHT22;15969;51.536;11.884;2022-12-11T16:46:47;0.10;99.90
28835;DHT22;15969;51.536;11.884;2022-12-11T16:49:13;0.10;99.90
28835;DHT22;15969;51.536;11.884;2022-12-11T16:51:39;0.10;99.90
28835;DHT22;15969;51.536;11.884;2022-12-11T16:54:05;0.10;99.90
28835;DHT22;15969;51.536;11.884;2022-12-11T16:56:31;0.00;99.90
28835;DHT22;15969;51.536;11.884;2022-12-11T16:58:57;0.00;99.90
28835;DHT22;15969;51.536;11.884;2022-12-11T17:01:25;0.00;99.90
28835;DHT22;15969;51.536;11.884;2022-12-11T17:03:50;0.00;99.90
28835;DHT22;15969;51.536;11.884;2022-12-11T17:06:17;0.00;99.90
28835;DHT22;15969;51.536;11.884;2022-12-11T17:08:43;-0.10;99.90
28835;DHT22;15969;51.536;11.884;2022-12-11T17:11:16;0.00;99.90
28835;DHT22;15969;51.536;11.884;2022-12-11T17:13:43;0.00;99.90
28835;DHT22;15969;51.536;11.884;2022-12-11T17:16:16;0.00;99.90
28835;DHT22;15969;51.536;11.884;2022-12-11T17:18:42;0.00;99.90
28835;DHT22;15969;51.536;11.884;2022-12-11T17:21:11;0.00;99.90
28835;DHT22;15969;51.536;11.884;2022-12-11T17:23:38;0.00;99.90
28835;DHT22;15969;51.536;11.884;2022-12-11T17:26:04;0.00;99.90
28835;DHT22;15969;51.536;11.884;2022-12-11T17:28:33;-0.10;99.90